Pagrindinis puslapis
METAR-TAF:

METAR-TAF

Oro uostai :

Konija, Turkija

platuma: 37-58N, ilguma: 032-33E, Aukštis: 1032 m

Dabartinis oras

Ataskaita buvo paskelbta 1 valandą ir 7 minutes, ne 18:50 UTC
Vėjas 5 kt iš Vakarų/Šiaurės Vakarų
Temperatūra 24°C
Drėgmė 29%
Slėgis 1007 hPa
Matomumas 10 km arba daugiau
nėra debesų žemiau 1500 m ir nėra kamuolinių lietaus debesų

METAR: LTAN 061850Z 30005KT CAVOK 24/05 Q1007 NOSIG

Laikas: 22:57 (19:57 UTC)

Prognozė

Ataskaita buvo paskelbta 3 valandos ir 17 minutes, ne 16:40 UTC
Prognozė galioja nuo 06 metu 18 UTC su 07 metu 03 UTC
Vėjas 7 kt iš Šiaurės
Matomumas 10 km arba daugiau
nėra debesų žemiau 1500 m ir nėra kamuolinių lietaus debesų

TAF: LTAN 061640Z 0618/0703 36007KT CAVOK

Orai ataskaitas ir orų prognozės (METAR, TAF).

turimą stotys yra geltonos ir raudonos taškus žemėlapyje.

Perkelti pele per norėdami pamatyti stoties vardą.

Tada spustelėkite, norėdami matyti oro stebėjimo ir prognozės.

Norėdami pakeisti žemėlapį: spustelėkite ant žalios mygtukų su juodo kryžiaus žemyn,; žalią mygtuką su brūkšneliu, jei norite nutolinti; arba žalių rodyklių gretimoms žemėlapius.


METAR-TAF: